createdAt,value
2023-03-20T00:01:17.646Z,96998.66
2023-03-20T00:03:44.513Z,96991.75
2023-03-20T00:06:25.658Z,96998.97
2023-03-20T00:08:54.293Z,96986.88
2023-03-20T00:11:31.422Z,96989.47
2023-03-20T00:14:00.992Z,96980.75
2023-03-20T00:16:32.204Z,96982.13
2023-03-20T00:18:59.388Z,96984.00
2023-03-20T00:21:27.379Z,96995.00
2023-03-20T00:23:54.892Z,96994.53
2023-03-20T00:26:25.798Z,97000.81
2023-03-20T00:28:53.002Z,96995.94
2023-03-20T00:31:26.871Z,96999.28
2023-03-20T00:33:58.864Z,96996.38
2023-03-20T00:36:25.591Z,97001.13
2023-03-20T00:38:53.135Z,97000.97
2023-03-20T00:41:38.756Z,96995.34
2023-03-20T00:44:14.533Z,96986.91
2023-03-20T00:46:41.710Z,96989.66
2023-03-20T00:49:11.860Z,96975.63
2023-03-20T00:51:39.815Z,96981.56
2023-03-20T00:54:13.255Z,96976.84
2023-03-20T00:56:44.198Z,96970.28
2023-03-20T00:59:19.314Z,96974.09
2023-03-20T01:01:46.907Z,96974.38
2023-03-20T01:04:17.162Z,96975.19
2023-03-20T01:06:44.757Z,96963.72
2023-03-20T01:09:11.602Z,96968.16
2023-03-20T01:11:39.879Z,96962.34
2023-03-20T01:14:14.730Z,96950.41
2023-03-20T01:16:42.603Z,96944.47
2023-03-20T01:19:16.962Z,96960.03
2023-03-20T01:21:44.172Z,96956.69
2023-03-20T01:24:11.022Z,96957.59
2023-03-20T01:26:40.150Z,96952.88
2023-03-20T01:29:24.779Z,96952.75
2023-03-20T01:31:52.625Z,96947.56
2023-03-20T01:34:21.166Z,96946.03
2023-03-20T01:36:57.023Z,96941.91
2023-03-20T01:39:32.529Z,96944.06
2023-03-20T01:42:00.006Z,96932.72
2023-03-20T01:44:30.848Z,96938.56
2023-03-20T01:47:01.403Z,96941.50
2023-03-20T01:49:28.786Z,96939.03
2023-03-20T01:51:59.237Z,96940.28
2023-03-20T01:54:34.628Z,96944.41
2023-03-20T01:57:10.762Z,96943.66
2023-03-20T01:59:47.189Z,96940.28
2023-03-20T02:02:28.428Z,96944.84
2023-03-20T02:04:59.931Z,96950.19
2023-03-20T02:07:26.935Z,96947.59
2023-03-20T02:10:14.542Z,96950.63
2023-03-20T02:12:57.201Z,96952.16
2023-03-20T02:15:32.183Z,96955.38
2023-03-20T02:18:08.425Z,96963.28
2023-03-20T02:21:10.673Z,96973.16
2023-03-20T02:23:54.787Z,96967.38
2023-03-20T02:27:02.607Z,96971.03
2023-03-20T02:29:50.806Z,96967.97
2023-03-20T02:32:44.732Z,96974.34
2023-03-20T02:35:43.762Z,96972.38
2023-03-20T02:38:41.241Z,96965.03
2023-03-20T02:41:28.285Z,96960.75
2023-03-20T02:44:26.008Z,96974.00
2023-03-20T02:47:04.069Z,96976.75
2023-03-20T02:49:54.935Z,96981.59
2023-03-20T02:52:57.153Z,96984.84
2023-03-20T02:55:40.039Z,96993.03
2023-03-20T02:58:25.990Z,97004.53
2023-03-20T03:00:59.201Z,97016.69
2023-03-20T03:03:34.362Z,97024.56
2023-03-20T03:06:18.164Z,97017.31
2023-03-20T03:08:50.090Z,97028.19
2023-03-20T03:11:17.628Z,97026.72
2023-03-20T03:13:52.892Z,97032.63
2023-03-20T03:16:32.387Z,97046.13
2023-03-20T03:19:08.548Z,97046.06
2023-03-20T03:21:40.212Z,97057.28
2023-03-20T03:24:26.754Z,97062.63
2023-03-20T03:27:03.696Z,97060.66
2023-03-20T03:29:34.124Z,97073.47
2023-03-20T03:32:02.888Z,97076.56
2023-03-20T03:34:29.814Z,97063.91
2023-03-20T03:37:08.160Z,97071.47
2023-03-20T03:39:45.792Z,97075.84
2023-03-20T03:42:27.975Z,97079.78
2023-03-20T03:45:18.850Z,97095.63
2023-03-20T03:47:52.693Z,97106.53
2023-03-20T03:50:48.979Z,97104.03
2023-03-20T03:53:22.853Z,97086.63
2023-03-20T03:55:57.795Z,97083.84
2023-03-20T03:58:31.495Z,97102.25
2023-03-20T04:01:00.009Z,97122.38
2023-03-20T04:03:33.070Z,97125.78
2023-03-20T04:06:01.238Z,97131.72
2023-03-20T04:08:27.847Z,97136.22
2023-03-20T04:10:54.513Z,97142.88
2023-03-20T04:13:21.097Z,97145.72
2023-03-20T04:15:47.829Z,97154.56
2023-03-20T04:18:19.489Z,97159.41
2023-03-20T04:20:48.480Z,97159.84
2023-03-20T04:23:16.671Z,97162.00
2023-03-20T04:25:43.507Z,97165.91
2023-03-20T04:28:11.916Z,97171.84
2023-03-20T04:30:48.192Z,97172.66
2023-03-20T04:33:26.625Z,97175.09
2023-03-20T04:36:12.557Z,97176.84
2023-03-20T04:38:40.559Z,97174.56
2023-03-20T04:41:08.525Z,97167.84
2023-03-20T04:43:35.508Z,97164.66
2023-03-20T04:46:02.269Z,97168.63
2023-03-20T04:48:29.286Z,97172.88
2023-03-20T04:50:56.436Z,97167.03
2023-03-20T04:53:29.384Z,97169.47
2023-03-20T04:55:56.058Z,97165.44
2023-03-20T04:58:23.753Z,97162.09
2023-03-20T05:00:50.910Z,97155.81
2023-03-20T05:03:17.755Z,97172.25
2023-03-20T05:05:44.491Z,97181.78
2023-03-20T05:08:11.388Z,97179.03
2023-03-20T05:10:39.019Z,97175.75
2023-03-20T05:13:28.539Z,97178.66
2023-03-20T05:16:18.213Z,97170.63
2023-03-20T05:18:57.872Z,97169.06
2023-03-20T05:21:29.981Z,97154.00
2023-03-20T05:24:12.113Z,97168.31
2023-03-20T05:26:53.706Z,97169.19
2023-03-20T05:29:43.458Z,97176.22
2023-03-20T05:32:37.012Z,97172.50
2023-03-20T05:35:21.569Z,97184.97
2023-03-20T05:37:53.020Z,97194.88
2023-03-20T05:40:36.952Z,97201.31
2023-03-20T05:43:18.453Z,97202.38
2023-03-20T05:45:51.211Z,97197.66
2023-03-20T05:48:46.053Z,97193.91
2023-03-20T05:51:31.435Z,97194.19
2023-03-20T05:54:07.548Z,97203.03
2023-03-20T05:56:52.684Z,97205.25
2023-03-20T05:59:31.797Z,97196.25
2023-03-20T06:02:17.505Z,97203.72
2023-03-20T06:04:54.527Z,97201.88
2023-03-20T06:07:27.168Z,97205.94
2023-03-20T06:10:00.923Z,97206.03
2023-03-20T06:12:29.754Z,97211.84
2023-03-20T06:14:56.359Z,97219.53
2023-03-20T06:17:23.461Z,97216.84
2023-03-20T06:19:55.676Z,97217.63
2023-03-20T06:22:22.491Z,97220.38
2023-03-20T06:24:49.273Z,97221.06
2023-03-20T06:27:16.195Z,97221.22
2023-03-20T06:29:46.612Z,97226.50
2023-03-20T06:32:17.784Z,97237.84
2023-03-20T06:34:47.713Z,97246.44
2023-03-20T06:37:14.768Z,97229.53
2023-03-20T06:39:41.758Z,97241.09
2023-03-20T06:42:15.077Z,97238.28
2023-03-20T06:44:43.362Z,97238.25
2023-03-20T06:47:15.673Z,97263.31
2023-03-20T06:49:45.606Z,97265.81
2023-03-20T06:52:19.326Z,97288.38
2023-03-20T06:54:56.376Z,97309.84
2023-03-20T06:57:23.130Z,97320.38
2023-03-20T06:59:49.946Z,97336.88
2023-03-20T07:02:17.025Z,97345.88
2023-03-20T07:04:43.808Z,97357.84
2023-03-20T07:07:10.663Z,97365.69
2023-03-20T07:09:37.279Z,97390.31
2023-03-20T07:12:05.127Z,97387.91
2023-03-20T07:14:33.955Z,97380.69
2023-03-20T07:17:04.799Z,97385.31
2023-03-20T07:19:33.325Z,97381.28
2023-03-20T07:22:03.030Z,97368.31
2023-03-20T07:24:35.424Z,97356.88
2023-03-20T07:27:02.248Z,97359.50
2023-03-20T07:29:30.365Z,97356.66
2023-03-20T07:31:58.000Z,97376.31
2023-03-20T07:34:29.340Z,97396.72
2023-03-20T07:36:56.757Z,97407.41
2023-03-20T07:39:23.313Z,97419.28
2023-03-20T07:42:03.617Z,97428.13
2023-03-20T07:44:43.414Z,97432.25
2023-03-20T07:47:11.395Z,97452.25
2023-03-20T07:49:37.924Z,97448.59
2023-03-20T07:52:04.583Z,97452.81
2023-03-20T07:54:31.632Z,97458.53
2023-03-20T07:56:58.295Z,97473.72
2023-03-20T07:59:24.945Z,97467.31
2023-03-20T08:01:52.389Z,97477.16
2023-03-20T08:04:21.433Z,97482.13
2023-03-20T08:06:48.125Z,97502.56
2023-03-20T08:09:15.469Z,97486.53
2023-03-20T08:11:42.508Z,97499.38
2023-03-20T08:14:09.257Z,97513.19
2023-03-20T08:16:35.871Z,97518.47
2023-03-20T08:19:03.382Z,97530.69
2023-03-20T08:21:31.679Z,97544.97
2023-03-20T08:23:58.716Z,97536.06
2023-03-20T08:26:28.314Z,97550.00
2023-03-20T08:28:55.003Z,97544.22
2023-03-20T08:31:21.626Z,97528.44
2023-03-20T08:33:48.613Z,97523.19
2023-03-20T08:36:16.308Z,97521.47
2023-03-20T08:38:43.502Z,97539.16
2023-03-20T08:41:10.606Z,97561.84
2023-03-20T08:43:37.629Z,97566.69
2023-03-20T08:46:05.185Z,97604.19
2023-03-20T08:48:31.877Z,97611.22
2023-03-20T08:50:58.494Z,97638.97
2023-03-20T08:53:25.357Z,97660.22
2023-03-20T08:55:52.506Z,97677.94
2023-03-20T08:58:20.032Z,97668.19
2023-03-20T09:00:46.920Z,97671.84
2023-03-20T09:03:15.168Z,97668.81
2023-03-20T09:05:44.848Z,97663.88
2023-03-20T09:08:11.787Z,97694.44
2023-03-20T09:10:38.624Z,97676.06
2023-03-20T09:13:23.504Z,97702.53
2023-03-20T09:15:53.280Z,97697.81
2023-03-20T09:18:21.262Z,97695.13
2023-03-20T09:20:49.023Z,97729.72
2023-03-20T09:23:15.991Z,97794.09
2023-03-20T09:25:42.908Z,97808.88
2023-03-20T09:28:09.556Z,97819.00
2023-03-20T09:30:36.764Z,97824.97
2023-03-20T09:33:03.743Z,97862.34
2023-03-20T09:35:31.503Z,97859.69
2023-03-20T09:37:58.215Z,97852.38
2023-03-20T09:40:37.038Z,97898.63
2023-03-20T09:43:28.245Z,97940.56
2023-03-20T09:46:07.063Z,97952.38
2023-03-20T09:49:25.585Z,97934.94
2023-03-20T09:51:56.671Z,97954.16
2023-03-20T09:54:29.034Z,97962.13
2023-03-20T09:56:57.290Z,97974.94
2023-03-20T09:59:26.210Z,97999.44
2023-03-20T10:02:16.716Z,97994.03
2023-03-20T10:04:44.276Z,97975.47
2023-03-20T10:07:15.596Z,97973.63
2023-03-20T10:09:42.864Z,98002.22
2023-03-20T10:12:21.510Z,98016.38
2023-03-20T10:15:01.369Z,98005.28
2023-03-20T10:17:47.272Z,97997.06
2023-03-20T10:20:21.357Z,98009.09
2023-03-20T10:22:57.956Z,98000.88
2023-03-20T10:25:30.613Z,98008.28
2023-03-20T10:28:13.388Z,98010.09
2023-03-20T10:31:07.768Z,98039.28
2023-03-20T10:33:37.041Z,98023.31
2023-03-20T10:36:21.955Z,98019.03
2023-03-20T10:39:03.733Z,98062.88
2023-03-20T10:41:35.098Z,98132.66
2023-03-20T10:44:02.420Z,98129.50
2023-03-20T10:46:35.628Z,98132.59
2023-03-20T10:49:08.865Z,98177.13
2023-03-20T10:51:46.589Z,98174.56
2023-03-20T10:54:35.382Z,98180.06
2023-03-20T10:57:04.553Z,98221.00
2023-03-20T10:59:39.045Z,98233.03
2023-03-20T11:02:13.446Z,98203.06
2023-03-20T11:04:40.119Z,98204.41
2023-03-20T11:07:22.080Z,98233.38
2023-03-20T11:10:11.282Z,98215.41
2023-03-20T11:12:41.344Z,98229.94
2023-03-20T11:15:33.889Z,98221.31
2023-03-20T11:18:03.495Z,98225.34
2023-03-20T11:20:50.549Z,98216.56
2023-03-20T11:23:24.091Z,98211.00
2023-03-20T11:25:59.488Z,98256.66
2023-03-20T11:28:40.409Z,98254.31
2023-03-20T11:31:18.574Z,98264.41
2023-03-20T11:34:14.465Z,98237.25
2023-03-20T11:37:08.704Z,98282.25
2023-03-20T11:39:38.257Z,98280.59
2023-03-20T11:42:23.678Z,98257.44
2023-03-20T11:44:59.036Z,98275.94
2023-03-20T11:47:27.747Z,98271.47
2023-03-20T11:50:00.296Z,98269.75
2023-03-20T11:52:39.906Z,98259.72
2023-03-20T11:55:29.814Z,98286.50
2023-03-20T11:58:00.855Z,98316.44
2023-03-20T12:00:38.663Z,98307.50
2023-03-20T12:03:37.064Z,98322.91
2023-03-20T12:06:07.002Z,98321.75
2023-03-20T12:08:36.920Z,98316.19
2023-03-20T12:11:22.132Z,98318.25
2023-03-20T12:13:51.468Z,98313.91
2023-03-20T12:16:21.786Z,98303.81
2023-03-20T12:18:54.622Z,98308.38
2023-03-20T12:21:24.420Z,98309.81
2023-03-20T12:24:04.577Z,98310.19
2023-03-20T12:26:57.125Z,98308.06
2023-03-20T12:29:30.501Z,98316.41
2023-03-20T12:32:03.517Z,98305.53
2023-03-20T12:34:51.411Z,98292.97
2023-03-20T12:37:18.606Z,98284.59
2023-03-20T12:39:55.305Z,98279.59
2023-03-20T12:42:37.315Z,98273.13
2023-03-20T12:45:11.360Z,98284.84
2023-03-20T12:47:48.998Z,98274.88
2023-03-20T12:50:36.280Z,98278.19
2023-03-20T12:53:34.500Z,98257.75
2023-03-20T12:56:22.143Z,98251.88
2023-03-20T12:59:06.842Z,98275.78
2023-03-20T13:01:56.040Z,98257.44
2023-03-20T13:04:51.062Z,98250.34
2023-03-20T13:07:20.604Z,98267.19
2023-03-20T13:10:21.297Z,98260.16
2023-03-20T13:13:15.550Z,98264.06
2023-03-20T13:16:00.728Z,98258.63
2023-03-20T13:18:49.900Z,98260.66
2023-03-20T13:21:24.667Z,98264.06
2023-03-20T13:24:17.837Z,98244.63
2023-03-20T13:27:16.169Z,98223.56
2023-03-20T13:30:09.280Z,98234.81
2023-03-20T13:32:52.646Z,98227.16
2023-03-20T13:35:32.982Z,98210.22
2023-03-20T13:38:12.572Z,98216.88
2023-03-20T13:40:44.060Z,98208.19
2023-03-20T13:43:24.034Z,98197.78
2023-03-20T13:46:14.606Z,98189.66
2023-03-20T13:48:43.094Z,98196.31
2023-03-20T13:51:31.469Z,98170.94
2023-03-20T13:54:06.868Z,98188.03
2023-03-20T13:56:44.423Z,98147.50
2023-03-20T13:59:29.880Z,98148.00
2023-03-20T14:02:22.311Z,98122.47
2023-03-20T14:04:58.221Z,98105.50
2023-03-20T14:07:37.158Z,98113.13
2023-03-20T14:10:22.114Z,98122.81
2023-03-20T14:13:01.542Z,98127.69
2023-03-20T14:15:33.097Z,98156.19
2023-03-20T14:18:04.966Z,98133.78
2023-03-20T14:20:37.121Z,98153.44
2023-03-20T14:23:05.083Z,98141.28
2023-03-20T14:25:42.195Z,98141.78
2023-03-20T14:28:12.808Z,98154.13
2023-03-20T14:30:50.147Z,98121.19
2023-03-20T14:33:16.867Z,98130.84
2023-03-20T14:35:44.894Z,98124.75
2023-03-20T14:38:11.468Z,98096.63
2023-03-20T14:40:53.645Z,98066.34
2023-03-20T14:43:36.098Z,98068.19
2023-03-20T14:46:41.196Z,98061.44
2023-03-20T14:49:36.852Z,98059.81
2023-03-20T14:52:25.077Z,98067.91
2023-03-20T14:54:54.040Z,98058.38
2023-03-20T14:57:48.675Z,98061.94
2023-03-20T15:00:30.899Z,98089.94
2023-03-20T15:03:06.914Z,98114.34
2023-03-20T15:05:36.828Z,98105.56
2023-03-20T15:08:11.087Z,98137.03
2023-03-20T15:10:46.881Z,98129.66
2023-03-20T15:13:16.112Z,98114.44
2023-03-20T15:16:04.020Z,98106.97
2023-03-20T15:18:38.213Z,98082.81
2023-03-20T15:21:14.799Z,98093.03
2023-03-20T15:23:46.360Z,98102.34
2023-03-20T15:26:18.186Z,98094.53
2023-03-20T15:28:46.402Z,98129.59
2023-03-20T15:31:30.354Z,98099.41
2023-03-20T15:33:57.957Z,98109.31
2023-03-20T15:36:28.683Z,98097.47
2023-03-20T15:39:05.539Z,98101.25
2023-03-20T15:41:35.175Z,98128.53
2023-03-20T15:44:16.800Z,98129.00
2023-03-20T15:47:23.168Z,98090.59
2023-03-20T15:49:53.532Z,98099.63
2023-03-20T15:52:31.708Z,98077.03
2023-03-20T15:55:02.784Z,98101.78
2023-03-20T15:57:38.036Z,98092.72
2023-03-20T16:00:10.211Z,98086.00
2023-03-20T16:02:37.853Z,98088.31
2023-03-20T16:05:05.860Z,98091.66
2023-03-20T16:07:33.381Z,98083.47
2023-03-20T16:10:00.558Z,98073.50
2023-03-20T16:12:27.569Z,98088.66
2023-03-20T16:14:55.850Z,98066.22
2023-03-20T16:17:25.141Z,98087.31
2023-03-20T16:19:52.092Z,98111.03
2023-03-20T16:22:26.124Z,98101.28
2023-03-20T16:24:58.121Z,98093.91
2023-03-20T16:27:33.935Z,98111.03
2023-03-20T16:30:16.100Z,98106.09
2023-03-20T16:32:47.278Z,98102.88
2023-03-20T16:35:29.804Z,98093.94
2023-03-20T16:38:00.152Z,98089.34
2023-03-20T16:40:36.102Z,98082.97
2023-03-20T16:43:12.071Z,98103.25
2023-03-20T16:45:44.320Z,98085.88
2023-03-20T16:48:13.673Z,98107.16
2023-03-20T16:50:44.874Z,98103.25
2023-03-20T16:53:15.569Z,98102.59
2023-03-20T16:55:45.082Z,98098.97
2023-03-20T16:58:28.517Z,98100.75
2023-03-20T17:01:01.820Z,98091.88
2023-03-20T17:03:36.489Z,98090.81
2023-03-20T17:06:29.412Z,98094.03
2023-03-20T17:09:13.594Z,98081.41
2023-03-20T17:11:44.689Z,98091.81
2023-03-20T17:14:11.380Z,98083.25
2023-03-20T17:16:40.270Z,98083.56
2023-03-20T17:19:14.600Z,98085.03
2023-03-20T17:21:41.707Z,98089.75
2023-03-20T17:24:09.489Z,98098.84
2023-03-20T17:26:36.272Z,98071.19
2023-03-20T17:29:03.496Z,98061.94
2023-03-20T17:31:30.584Z,98072.97
2023-03-20T17:33:57.557Z,98093.53
2023-03-20T17:36:30.296Z,98088.94
2023-03-20T17:38:58.256Z,98082.66
2023-03-20T17:41:25.425Z,98070.81
2023-03-20T17:43:52.433Z,98070.94
2023-03-20T17:46:20.805Z,98078.03
2023-03-20T17:48:48.935Z,98059.91
2023-03-20T17:51:15.648Z,98053.28
2023-03-20T17:53:42.271Z,98030.25
2023-03-20T17:56:13.880Z,98062.66
2023-03-20T17:58:44.654Z,98074.00
2023-03-20T18:01:12.365Z,98084.13
2023-03-20T18:03:39.384Z,98085.16
2023-03-20T18:06:07.394Z,98072.75
2023-03-20T18:08:34.149Z,98062.50
2023-03-20T18:11:00.875Z,98054.22
2023-03-20T18:13:28.673Z,98067.41
2023-03-20T18:15:58.412Z,98041.84
2023-03-20T18:18:25.944Z,98034.53
2023-03-20T18:20:54.958Z,98033.91
2023-03-20T18:23:22.026Z,98040.28
2023-03-20T18:25:49.010Z,98034.34
2023-03-20T18:28:22.862Z,98045.56
2023-03-20T18:30:50.743Z,98054.56
2023-03-20T18:33:17.966Z,98051.53
2023-03-20T18:35:45.179Z,98046.56
2023-03-20T18:38:16.424Z,98033.81
2023-03-20T18:40:47.312Z,98035.97
2023-03-20T18:43:14.095Z,98025.38
2023-03-20T18:45:41.238Z,98025.66
2023-03-20T18:48:12.308Z,98022.78
2023-03-20T18:50:41.701Z,98035.47
2023-03-20T18:53:09.942Z,98025.09
2023-03-20T18:55:38.278Z,98028.78
2023-03-20T18:58:06.331Z,98038.16
2023-03-20T19:00:40.285Z,98039.41
2023-03-20T19:03:07.958Z,98036.25
2023-03-20T19:05:36.016Z,98027.97
2023-03-20T19:08:03.537Z,98032.19
2023-03-20T19:10:36.916Z,97999.00
2023-03-20T19:13:05.525Z,98016.03
2023-03-20T19:15:35.747Z,98014.84
2023-03-20T19:18:07.628Z,98004.97
2023-03-20T19:20:36.140Z,97987.63
2023-03-20T19:23:04.912Z,98012.31
2023-03-20T19:25:32.005Z,98008.13
2023-03-20T19:27:59.795Z,98005.00
2023-03-20T19:30:44.817Z,97997.59
2023-03-20T19:33:11.595Z,97987.59
2023-03-20T19:35:58.901Z,97981.47
2023-03-20T19:38:24.931Z,97988.75
2023-03-20T19:40:55.550Z,97973.97
2023-03-20T19:43:23.280Z,97977.06
2023-03-20T19:45:56.476Z,97997.22
2023-03-20T19:48:43.315Z,97998.88
2023-03-20T19:51:26.903Z,97991.84
2023-03-20T19:53:54.846Z,97998.88
2023-03-20T19:56:23.170Z,98005.59
2023-03-20T19:58:50.016Z,97991.63
2023-03-20T20:01:19.769Z,97993.16
2023-03-20T20:03:47.802Z,97974.72
2023-03-20T20:06:14.956Z,97981.94
2023-03-20T20:08:48.271Z,97967.25
2023-03-20T20:11:19.499Z,97966.22
2023-03-20T20:16:35.409Z,97963.09
2023-03-20T20:19:02.560Z,97950.47
2023-03-20T20:24:18.902Z,97954.63
2023-03-20T20:27:00.010Z,97950.75
2023-03-20T20:29:34.212Z,97952.84
2023-03-20T20:32:01.190Z,97946.59
2023-03-20T20:40:04.360Z,97933.16
2023-03-20T20:42:31.243Z,97938.56
2023-03-20T20:44:57.858Z,97922.28
2023-03-20T20:47:24.517Z,97926.91
2023-03-20T20:49:51.252Z,97933.72
2023-03-20T20:52:18.034Z,97928.31
2023-03-20T20:54:44.692Z,97930.97
2023-03-20T20:57:12.347Z,97953.75
2023-03-20T20:59:40.486Z,97922.69
2023-03-20T21:02:12.328Z,97911.88
2023-03-20T21:04:41.051Z,97908.78
2023-03-20T21:07:11.754Z,97892.75
2023-03-20T21:09:39.247Z,97893.97
2023-03-20T21:12:06.483Z,97898.22
2023-03-20T21:14:33.194Z,97900.81
2023-03-20T21:17:02.620Z,97912.41
2023-03-20T21:19:40.891Z,97909.06
2023-03-20T21:22:09.860Z,97900.72
2023-03-20T21:24:36.954Z,97909.81
2023-03-20T21:27:06.864Z,97899.25
2023-03-20T21:29:34.162Z,97883.22
2023-03-20T21:32:01.161Z,97883.91
2023-03-20T21:34:29.065Z,97894.38
2023-03-20T21:36:57.884Z,97888.63
2023-03-20T21:39:28.550Z,97884.53
2023-03-20T21:41:55.256Z,97884.47
2023-03-20T21:44:59.856Z,97874.41
2023-03-20T21:47:58.627Z,97869.47
2023-03-20T21:53:19.515Z,97881.41
2023-03-20T21:59:03.796Z,97845.75
2023-03-20T22:04:51.103Z,97862.53
2023-03-20T22:07:23.905Z,97848.03
2023-03-20T22:13:03.543Z,97829.44
2023-03-20T22:15:33.939Z,97830.97
2023-03-20T22:21:21.858Z,97818.72
2023-03-20T22:24:10.429Z,97816.88
2023-03-20T22:43:31.894Z,97871.84
2023-03-20T22:45:52.728Z,97867.69
2023-03-20T22:48:21.825Z,97871.34
2023-03-20T22:50:50.105Z,97859.16
2023-03-20T22:53:17.912Z,97880.59
2023-03-20T22:55:46.791Z,97857.81
2023-03-20T22:58:14.803Z,97875.06
2023-03-20T23:00:42.696Z,97865.81
2023-03-20T23:03:22.302Z,97876.66
2023-03-20T23:05:57.063Z,97894.19
2023-03-20T23:08:24.783Z,97868.56
2023-03-20T23:10:51.719Z,97875.06
2023-03-20T23:13:20.424Z,97892.84
2023-03-20T23:15:47.473Z,97884.88
2023-03-20T23:18:15.233Z,97893.91
2023-03-20T23:20:42.323Z,97887.47
2023-03-20T23:23:09.455Z,97872.19
2023-03-20T23:25:39.776Z,97870.41
2023-03-20T23:28:09.514Z,97869.63
2023-03-20T23:31:07.417Z,97860.31
2023-03-20T23:33:23.128Z,97869.09
2023-03-20T23:36:01.152Z,97851.59
2023-03-20T23:38:31.984Z,97836.03
2023-03-20T23:40:58.612Z,97857.16
2023-03-20T23:43:25.571Z,97864.41
2023-03-20T23:45:52.189Z,97863.88
2023-03-20T23:48:19.619Z,97861.53
2023-03-20T23:50:53.095Z,97847.03
2023-03-20T23:53:21.317Z,97852.22
2023-03-20T23:55:50.802Z,97850.09
2023-03-20T23:58:17.870Z,97848.56
